createdAt,value
2019-03-10T00:00:43.333Z,94952.66
2019-03-10T00:03:15.756Z,94951.30
2019-03-10T00:05:48.016Z,94954.49
2019-03-10T00:08:20.213Z,94955.83
2019-03-10T00:10:52.347Z,94959.55
2019-03-10T00:13:24.602Z,94957.36
2019-03-10T00:15:56.897Z,94961.95
2019-03-10T00:18:29.180Z,94968.78
2019-03-10T00:21:01.489Z,94972.88
2019-03-10T00:23:33.666Z,94975.49
2019-03-10T00:26:05.922Z,94980.19
2019-03-10T00:28:38.032Z,94981.36
2019-03-10T00:31:10.463Z,94982.05
2019-03-10T00:33:42.745Z,94980.91
2019-03-10T00:36:15.135Z,94977.80
2019-03-10T00:39:39.705Z,94967.02
2019-03-10T00:43:18.058Z,94956.02
2019-03-10T00:47:32.408Z,94971.31
2019-03-10T00:50:59.516Z,94974.38
2019-03-10T00:53:31.500Z,94970.55
2019-03-10T00:56:03.606Z,94969.97
2019-03-10T00:58:35.830Z,94974.91
2019-03-10T01:01:08.107Z,94974.14
2019-03-10T01:03:40.254Z,94972.70
2019-03-10T01:06:12.205Z,94961.45
2019-03-10T01:08:44.419Z,94960.02
2019-03-10T01:11:16.620Z,94968.17
2019-03-10T01:13:49.048Z,94972.67
2019-03-10T01:16:22.210Z,94973.80
2019-03-10T01:18:56.147Z,94971.53
2019-03-10T01:21:32.389Z,94975.42
2019-03-10T01:24:04.866Z,94969.87
2019-03-10T01:26:36.897Z,94974.34
2019-03-10T01:29:08.991Z,94964.66
2019-03-10T01:32:38.265Z,94965.00
2019-03-10T01:35:23.317Z,94969.25
2019-03-10T01:37:55.420Z,94958.78
2019-03-10T01:40:27.441Z,94954.47
2019-03-10T01:42:59.323Z,94943.26
2019-03-10T01:45:31.264Z,94946.09
2019-03-10T01:48:03.239Z,94940.25
2019-03-10T01:50:35.244Z,94943.30
2019-03-10T01:53:07.417Z,94944.67
2019-03-10T01:55:39.379Z,94954.06
2019-03-10T01:58:11.248Z,94948.70
2019-03-10T02:00:43.185Z,94946.95
2019-03-10T02:03:15.156Z,94941.19
2019-03-10T02:05:47.175Z,94949.41
2019-03-10T02:08:19.464Z,94948.49
2019-03-10T02:10:52.050Z,94954.34
2019-03-10T02:13:24.193Z,94962.02
2019-03-10T02:16:03.726Z,94963.59
2019-03-10T02:18:38.955Z,94957.42
2019-03-10T02:21:10.948Z,94955.45
2019-03-10T02:23:43.102Z,94955.29
2019-03-10T02:26:15.161Z,94959.61
2019-03-10T02:28:47.320Z,94961.19
2019-03-10T02:31:19.314Z,94957.45
2019-03-10T02:33:51.329Z,94961.20
2019-03-10T02:36:23.235Z,94963.10
2019-03-10T02:38:55.221Z,94980.87
2019-03-10T02:41:27.427Z,94991.22
2019-03-10T02:43:59.446Z,94993.11
2019-03-10T02:46:31.588Z,95006.53
2019-03-10T02:49:03.771Z,95011.97
2019-03-10T02:51:35.786Z,95010.46
2019-03-10T02:54:07.914Z,95015.23
2019-03-10T02:56:39.923Z,95013.13
2019-03-10T02:59:12.037Z,95010.67
2019-03-10T03:01:44.083Z,95003.44
2019-03-10T03:04:16.175Z,95000.03
2019-03-10T03:06:48.187Z,95000.30
2019-03-10T03:09:20.291Z,95001.89
2019-03-10T03:11:52.289Z,95007.15
2019-03-10T03:14:24.707Z,94998.05
2019-03-10T03:16:56.622Z,95000.32
2019-03-10T03:19:28.517Z,94997.51
2019-03-10T03:22:00.377Z,94995.55
2019-03-10T03:24:32.440Z,94995.35
2019-03-10T03:27:04.512Z,94991.97
2019-03-10T03:29:36.565Z,94995.08
2019-03-10T03:32:08.571Z,95006.66
2019-03-10T03:34:40.657Z,95014.95
2019-03-10T03:37:17.470Z,95013.86
2019-03-10T03:39:52.398Z,95011.13
2019-03-10T03:42:24.433Z,95013.81
2019-03-10T03:44:56.436Z,95016.58
2019-03-10T03:47:28.436Z,95013.78
2019-03-10T03:50:00.649Z,95011.34
2019-03-10T03:52:32.727Z,95013.25
2019-03-10T03:55:04.798Z,95016.55
2019-03-10T03:57:36.939Z,95009.99
2019-03-10T04:00:09.772Z,95020.82
2019-03-10T04:02:41.876Z,95019.59
2019-03-10T04:05:14.104Z,95019.98
2019-03-10T04:07:46.074Z,95015.83
2019-03-10T04:10:18.141Z,95019.34
2019-03-10T04:12:50.397Z,95017.76
2019-03-10T04:15:22.510Z,95028.16
2019-03-10T04:17:54.569Z,95032.63
2019-03-10T04:20:26.658Z,95028.31
2019-03-10T04:22:58.700Z,95025.09
2019-03-10T04:25:30.796Z,95021.39
2019-03-10T04:28:02.971Z,95029.98
2019-03-10T04:30:35.304Z,95033.45
2019-03-10T04:33:07.504Z,95034.73
2019-03-10T04:35:39.949Z,95035.10
2019-03-10T04:38:12.086Z,95036.44
2019-03-10T04:40:44.212Z,95039.45
2019-03-10T04:43:16.393Z,95034.81
2019-03-10T04:45:48.684Z,95031.61
2019-03-10T04:48:20.904Z,95026.41
2019-03-10T04:50:53.263Z,95024.05
2019-03-10T04:53:25.477Z,95029.31
2019-03-10T04:56:06.104Z,95035.89
2019-03-10T04:58:42.104Z,95042.81
2019-03-10T05:01:14.300Z,95041.19
2019-03-10T05:03:46.523Z,95045.69
2019-03-10T05:06:18.687Z,95038.92
2019-03-10T05:08:50.932Z,95039.87
2019-03-10T05:11:23.483Z,95049.80
2019-03-10T05:13:55.745Z,95050.75
2019-03-10T05:16:28.145Z,95059.66
2019-03-10T05:19:00.378Z,95063.34
2019-03-10T05:21:32.745Z,95060.64
2019-03-10T05:24:11.887Z,95068.80
2019-03-10T05:26:44.347Z,95065.61
2019-03-10T05:29:16.634Z,95068.13
2019-03-10T05:31:49.100Z,95071.81
2019-03-10T05:34:21.405Z,95071.70
2019-03-10T05:36:53.817Z,95068.21
2019-03-10T05:39:26.297Z,95077.43
2019-03-10T05:41:58.474Z,95076.02
2019-03-10T05:44:30.980Z,95077.16
2019-03-10T05:47:03.380Z,95083.22
2019-03-10T05:49:35.720Z,95090.56
2019-03-10T05:52:08.132Z,95087.30
2019-03-10T05:54:40.656Z,95080.45
2019-03-10T05:57:13.215Z,95076.54
2019-03-10T05:59:45.780Z,95098.89
2019-03-10T06:02:21.796Z,95094.30
2019-03-10T06:04:54.805Z,95107.61
2019-03-10T06:07:27.344Z,95108.79
2019-03-10T06:10:02.973Z,95116.06
2019-03-10T06:12:35.495Z,95118.97
2019-03-10T06:15:08.544Z,95126.98
2019-03-10T06:17:41.054Z,95124.13
2019-03-10T06:20:13.910Z,95135.91
2019-03-10T06:22:46.578Z,95126.38
2019-03-10T06:25:19.155Z,95136.98
2019-03-10T06:27:51.632Z,95147.04
2019-03-10T06:30:24.569Z,95154.11
2019-03-10T06:32:57.177Z,95154.25
2019-03-10T06:35:29.892Z,95152.70
2019-03-10T06:38:02.915Z,95139.42
2019-03-10T06:40:35.382Z,95126.34
2019-03-10T06:43:07.830Z,95139.69
2019-03-10T06:45:40.387Z,95136.73
2019-03-10T06:48:12.810Z,95134.62
2019-03-10T06:50:45.204Z,95142.54
2019-03-10T06:53:17.791Z,95148.14
2019-03-10T06:55:50.403Z,95154.28
2019-03-10T06:58:23.192Z,95149.49
2019-03-10T07:00:55.948Z,95156.30
2019-03-10T07:03:28.605Z,95151.84
2019-03-10T07:06:01.130Z,95151.13
2019-03-10T07:08:33.861Z,95152.97
2019-03-10T07:11:06.554Z,95160.28
2019-03-10T07:13:39.743Z,95162.34
2019-03-10T07:16:12.279Z,95161.27
2019-03-10T07:18:44.484Z,95164.40
2019-03-10T07:21:16.840Z,95164.55
2019-03-10T07:23:49.419Z,95154.95
2019-03-10T07:26:21.970Z,95162.61
2019-03-10T07:29:08.572Z,95166.78
2019-03-10T07:31:51.810Z,95160.95
2019-03-10T07:35:02.521Z,95155.17
2019-03-10T07:37:59.822Z,95153.31
2019-03-10T07:41:08.720Z,95150.20
2019-03-10T07:43:47.278Z,95149.09
2019-03-10T07:46:34.399Z,95145.47
2019-03-10T07:49:21.340Z,95142.34
2019-03-10T07:52:20.466Z,95147.38
2019-03-10T07:55:11.301Z,95136.91
2019-03-10T07:58:01.169Z,95132.88
2019-03-10T08:00:48.673Z,95128.63
2019-03-10T08:03:47.262Z,95129.13
2019-03-10T08:06:47.823Z,95119.69
2019-03-10T08:09:33.517Z,95129.05
2019-03-10T08:12:34.294Z,95124.95
2019-03-10T08:15:16.703Z,95119.95
2019-03-10T08:18:16.916Z,95116.48
2019-03-10T08:21:15.854Z,95107.91
2019-03-10T08:24:16.394Z,95118.98
2019-03-10T08:27:10.413Z,95106.53
2019-03-10T08:30:01.205Z,95108.44
2019-03-10T08:33:01.226Z,95103.41
2019-03-10T08:36:00.317Z,95100.37
2019-03-10T08:38:43.882Z,95100.34
2019-03-10T08:41:38.363Z,95095.49
2019-03-10T08:44:27.874Z,95089.30
2019-03-10T08:47:22.513Z,95093.75
2019-03-10T08:50:24.629Z,95100.11
2019-03-10T08:53:13.701Z,95093.23
2019-03-10T08:56:06.137Z,95082.95
2019-03-10T08:59:02.040Z,95080.56
2019-03-10T09:01:57.556Z,95081.23
2019-03-10T09:04:49.763Z,95083.54
2019-03-10T09:07:49.251Z,95084.27
2019-03-10T09:10:44.152Z,95080.12
2019-03-10T09:13:38.748Z,95075.72
2019-03-10T09:16:33.612Z,95072.09
2019-03-10T09:19:31.762Z,95065.66
2019-03-10T09:22:22.391Z,95063.23
2019-03-10T09:25:14.742Z,95050.25
2019-03-10T09:28:00.209Z,95040.78
2019-03-10T09:31:00.621Z,95034.11
2019-03-10T09:33:48.092Z,95022.19
2019-03-10T09:36:27.367Z,95020.70
2019-03-10T09:39:19.379Z,95020.59
2019-03-10T09:42:17.660Z,95015.59
2019-03-10T09:45:11.661Z,95015.70
2019-03-10T09:48:02.303Z,95018.00
2019-03-10T09:50:54.583Z,95014.23
2019-03-10T09:53:47.268Z,95012.06
2019-03-10T09:56:36.163Z,95003.71
2019-03-10T09:59:35.016Z,94996.77
2019-03-10T10:02:34.660Z,94988.27
2019-03-10T10:05:23.006Z,94990.85
2019-03-10T10:08:20.679Z,94985.39
2019-03-10T10:11:00.341Z,94981.62
2019-03-10T10:13:58.079Z,94985.05
2019-03-10T10:17:02.382Z,94988.63
2019-03-10T10:19:46.631Z,94982.51
2019-03-10T10:22:45.109Z,94984.05
2019-03-10T10:25:28.795Z,94984.23
2019-03-10T10:28:26.777Z,94973.55
2019-03-10T10:31:18.360Z,94970.92
2019-03-10T10:34:08.506Z,94970.73
2019-03-10T10:36:59.433Z,94964.02
2019-03-10T10:39:54.050Z,94968.23
2019-03-10T10:42:52.339Z,94959.56
2019-03-10T10:45:42.915Z,94953.97
2019-03-10T10:48:50.494Z,94951.89
2019-03-10T10:51:46.229Z,94950.75
2019-03-10T10:54:47.300Z,94938.50
2019-03-10T10:57:57.603Z,94932.79
2019-03-10T11:00:47.099Z,94917.91
2019-03-10T11:03:36.547Z,94920.78
2019-03-10T11:06:35.068Z,94912.16
2019-03-10T11:09:34.485Z,94903.70
2019-03-10T11:12:27.090Z,94906.83
2019-03-10T11:15:19.145Z,94906.27
2019-03-10T11:18:10.143Z,94895.25
2019-03-10T11:20:52.870Z,94882.03
2019-03-10T11:23:53.991Z,94867.74
2019-03-10T11:26:55.515Z,94857.67
2019-03-10T11:29:55.193Z,94855.26
2019-03-10T11:32:50.133Z,94850.98
2019-03-10T11:35:48.606Z,94836.16
2019-03-10T11:38:38.033Z,94840.01
2019-03-10T11:41:33.289Z,94826.52
2019-03-10T11:44:16.955Z,94828.88
2019-03-10T11:47:09.185Z,94825.20
2019-03-10T11:49:56.942Z,94817.87
2019-03-10T11:52:45.568Z,94801.70
2019-03-10T11:55:51.001Z,94793.55
2019-03-10T11:58:33.426Z,94789.50
2019-03-10T12:01:25.154Z,94795.52
2019-03-10T12:04:17.360Z,94789.03
2019-03-10T12:07:04.880Z,94782.31
2019-03-10T12:09:38.232Z,94774.77
2019-03-10T12:12:11.826Z,94765.69
2019-03-10T12:14:45.210Z,94757.89
2019-03-10T12:17:18.428Z,94751.78
2019-03-10T12:19:52.053Z,94750.91
2019-03-10T12:22:25.130Z,94736.16
2019-03-10T12:24:58.598Z,94743.19
2019-03-10T12:27:32.094Z,94730.78
2019-03-10T12:30:05.967Z,94727.41
2019-03-10T12:32:39.459Z,94714.53
2019-03-10T12:35:13.113Z,94708.67
2019-03-10T12:37:57.208Z,94704.64
2019-03-10T12:40:30.695Z,94689.27
2019-03-10T12:43:03.934Z,94690.22
2019-03-10T12:45:37.751Z,94678.50
2019-03-10T12:48:11.352Z,94663.96
2019-03-10T12:50:44.579Z,94665.42
2019-03-10T12:53:23.683Z,94659.19
2019-03-10T12:56:08.876Z,94649.43
2019-03-10T12:58:42.339Z,94632.95
2019-03-10T13:01:15.465Z,94626.88
2019-03-10T13:03:58.350Z,94620.89
2019-03-10T13:06:25.067Z,94621.72
2019-03-10T13:08:58.644Z,94615.33
2019-03-10T13:11:32.032Z,94614.05
2019-03-10T13:14:05.611Z,94605.52
2019-03-10T13:16:38.750Z,94596.83
2019-03-10T13:19:12.083Z,94595.27
2019-03-10T13:21:45.638Z,94591.63
2019-03-10T13:24:39.650Z,94587.50
2019-03-10T13:27:13.190Z,94573.97
2019-03-10T13:29:46.510Z,94579.98
2019-03-10T13:32:19.927Z,94577.95
2019-03-10T13:34:53.115Z,94556.52
2019-03-10T13:37:27.133Z,94558.30
2019-03-10T13:40:00.373Z,94546.93
2019-03-10T13:42:33.611Z,94561.17
2019-03-10T13:45:07.338Z,94548.17
2019-03-10T13:47:40.564Z,94560.27
2019-03-10T13:50:14.713Z,94525.61
2019-03-10T13:52:47.784Z,94530.95
2019-03-10T13:55:21.520Z,94513.67
2019-03-10T13:57:54.881Z,94516.84
2019-03-10T14:00:28.181Z,94520.84
2019-03-10T14:03:01.603Z,94509.67
2019-03-10T14:05:35.198Z,94516.44
2019-03-10T14:08:10.303Z,94517.77
2019-03-10T14:10:43.702Z,94516.13
2019-03-10T14:13:17.188Z,94514.56
2019-03-10T14:15:50.377Z,94524.20
2019-03-10T14:18:24.536Z,94505.70
2019-03-10T14:20:58.133Z,94498.69
2019-03-10T14:23:31.502Z,94511.98
2019-03-10T14:26:05.105Z,94502.84
2019-03-10T14:28:38.526Z,94499.34
2019-03-10T14:31:12.325Z,94489.66
2019-03-10T14:33:45.782Z,94484.40
2019-03-10T14:36:19.319Z,94487.48
2019-03-10T14:38:52.736Z,94473.81
2019-03-10T14:41:26.336Z,94482.43
2019-03-10T14:43:59.777Z,94481.52
2019-03-10T14:46:33.091Z,94483.34
2019-03-10T14:49:06.756Z,94470.84
2019-03-10T14:51:41.455Z,94474.83
2019-03-10T14:54:14.682Z,94471.08
2019-03-10T14:56:48.053Z,94483.75
2019-03-10T14:59:21.518Z,94474.41
2019-03-10T15:01:55.026Z,94477.58
2019-03-10T15:04:33.275Z,94472.23
2019-03-10T15:07:06.585Z,94486.61
2019-03-10T15:09:39.969Z,94492.84
2019-03-10T15:12:13.665Z,94499.93
2019-03-10T15:14:58.079Z,94472.77
2019-03-10T15:17:31.786Z,94477.75
2019-03-10T15:20:05.636Z,94465.48
2019-03-10T15:22:38.991Z,94476.45
2019-03-10T15:25:13.268Z,94468.90
2019-03-10T15:27:46.781Z,94468.28
2019-03-10T15:30:21.044Z,94463.56
2019-03-10T15:32:54.504Z,94455.95
2019-03-10T15:35:27.990Z,94460.40
2019-03-10T15:38:01.394Z,94464.21
2019-03-10T15:40:36.366Z,94459.37
2019-03-10T15:43:10.038Z,94453.13
2019-03-10T15:45:44.172Z,94443.72
2019-03-10T15:48:18.713Z,94445.40
2019-03-10T15:50:52.347Z,94439.33
2019-03-10T15:53:25.358Z,94440.20
2019-03-10T15:55:59.190Z,94439.27
2019-03-10T15:58:32.927Z,94446.88
2019-03-10T16:01:06.391Z,94437.00
2019-03-10T16:03:41.328Z,94425.75
2019-03-10T16:06:14.814Z,94421.12
2019-03-10T16:08:48.487Z,94413.60
2019-03-10T16:11:22.365Z,94418.39
2019-03-10T16:13:56.272Z,94417.73
2019-03-10T16:16:29.492Z,94411.56
2019-03-10T16:19:06.464Z,94410.44
2019-03-10T16:21:40.071Z,94411.02
2019-03-10T16:24:13.530Z,94405.38
2019-03-10T16:26:47.105Z,94409.50
2019-03-10T16:29:20.679Z,94410.56
2019-03-10T16:31:54.457Z,94409.99
2019-03-10T16:34:29.579Z,94411.02
2019-03-10T16:37:03.908Z,94406.34
2019-03-10T16:39:37.730Z,94409.09
2019-03-10T16:42:13.711Z,94411.73
2019-03-10T16:44:46.547Z,94393.45
2019-03-10T16:47:19.451Z,94400.52
2019-03-10T16:49:52.920Z,94402.03
2019-03-10T16:52:26.412Z,94400.59
2019-03-10T16:54:59.709Z,94410.32
2019-03-10T16:57:33.833Z,94407.02
2019-03-10T17:00:08.350Z,94420.89
2019-03-10T17:02:43.293Z,94416.05
2019-03-10T17:05:16.884Z,94417.25
2019-03-10T17:07:50.938Z,94411.02
2019-03-10T17:10:24.835Z,94412.95
2019-03-10T17:12:58.303Z,94407.18
2019-03-10T17:15:35.493Z,94403.02
2019-03-10T17:18:11.233Z,94404.33
2019-03-10T17:20:54.950Z,94403.48
2019-03-10T17:23:36.265Z,94397.74
2019-03-10T17:26:15.030Z,94396.39
2019-03-10T17:28:52.190Z,94392.63
2019-03-10T17:31:32.919Z,94385.67
2019-03-10T17:34:17.143Z,94384.59
2019-03-10T17:37:03.096Z,94378.72
2019-03-10T17:39:44.527Z,94377.17
2019-03-10T17:42:23.316Z,94364.54
2019-03-10T17:45:03.542Z,94371.83
2019-03-10T17:47:46.227Z,94364.17
2019-03-10T17:50:25.975Z,94362.23
2019-03-10T17:53:08.344Z,94357.83
2019-03-10T17:55:54.553Z,94364.88
2019-03-10T17:58:34.209Z,94353.09
2019-03-10T18:01:17.415Z,94366.17
2019-03-10T18:03:56.883Z,94359.80
2019-03-10T18:06:39.040Z,94348.02
2019-03-10T18:09:19.570Z,94346.23
2019-03-10T18:11:55.779Z,94357.33
2019-03-10T18:14:32.388Z,94352.78
2019-03-10T18:17:20.273Z,94345.50
2019-03-10T18:19:56.661Z,94343.14
2019-03-10T18:22:34.508Z,94339.84
2019-03-10T18:25:11.931Z,94330.70
2019-03-10T18:27:51.695Z,94325.36
2019-03-10T18:30:29.179Z,94325.11
2019-03-10T18:33:09.230Z,94320.48
2019-03-10T18:35:46.197Z,94310.73
2019-03-10T18:38:23.533Z,94317.77
2019-03-10T18:40:58.779Z,94323.36
2019-03-10T18:43:39.131Z,94299.80
2019-03-10T18:46:16.995Z,94313.76
2019-03-10T18:48:54.624Z,94308.46
2019-03-10T18:51:36.471Z,94298.31
2019-03-10T18:54:17.025Z,94299.97
2019-03-10T18:57:00.004Z,94292.86
2019-03-10T18:59:59.022Z,94297.97
2019-03-10T19:02:32.879Z,94304.06
2019-03-10T19:05:06.824Z,94297.80
2019-03-10T19:07:40.979Z,94290.27
2019-03-10T19:10:15.164Z,94306.14
2019-03-10T19:12:49.105Z,94297.26
2019-03-10T19:15:22.599Z,94295.58
2019-03-10T19:17:56.392Z,94297.16
2019-03-10T19:20:29.677Z,94294.25
2019-03-10T19:23:03.136Z,94296.02
2019-03-10T19:25:37.133Z,94296.97
2019-03-10T19:28:12.182Z,94290.70
2019-03-10T19:30:46.007Z,94292.47
2019-03-10T19:33:19.619Z,94287.44
2019-03-10T19:35:53.489Z,94287.02
2019-03-10T19:38:27.587Z,94281.84
2019-03-10T19:41:02.575Z,94273.41
2019-03-10T19:43:36.415Z,94280.98
2019-03-10T19:46:09.746Z,94281.66
2019-03-10T19:48:43.306Z,94291.66
2019-03-10T19:51:16.972Z,94289.81
2019-03-10T19:53:51.323Z,94292.75
2019-03-10T19:56:30.941Z,94290.08
2019-03-10T19:59:04.181Z,94296.48
2019-03-10T20:01:37.272Z,94304.36
2019-03-10T20:04:10.659Z,94300.91
2019-03-10T20:06:44.179Z,94299.76
2019-03-10T20:09:17.297Z,94301.45
2019-03-10T20:11:50.612Z,94299.84
2019-03-10T20:14:23.868Z,94309.75
2019-03-10T20:16:57.793Z,94311.11
2019-03-10T20:19:34.051Z,94311.61
2019-03-10T20:22:07.024Z,94313.65
2019-03-10T20:24:40.097Z,94307.89
2019-03-10T20:27:12.809Z,94299.11
2019-03-10T20:29:46.309Z,94294.81
2019-03-10T20:32:19.680Z,94287.08
2019-03-10T20:34:53.121Z,94284.40
2019-03-10T20:37:26.523Z,94284.26
2019-03-10T20:40:00.729Z,94293.24
2019-03-10T20:42:33.537Z,94289.39
2019-03-10T20:45:07.215Z,94294.28
2019-03-10T20:47:40.638Z,94294.81
2019-03-10T20:50:15.294Z,94302.87
2019-03-10T20:52:48.668Z,94312.09
2019-03-10T20:55:21.898Z,94311.10
2019-03-10T20:57:57.083Z,94310.91
2019-03-10T21:00:30.399Z,94317.34
2019-03-10T21:03:03.807Z,94311.56
2019-03-10T21:05:37.057Z,94321.10
2019-03-10T21:08:10.513Z,94320.00
2019-03-10T21:10:44.427Z,94324.58
2019-03-10T21:13:17.660Z,94325.88
2019-03-10T21:15:51.077Z,94320.42
2019-03-10T21:18:24.363Z,94316.48
2019-03-10T21:20:58.088Z,94316.64
2019-03-10T21:23:31.552Z,94324.95
2019-03-10T21:26:05.143Z,94323.72
2019-03-10T21:28:38.493Z,94322.72
2019-03-10T21:31:12.024Z,94323.86
2019-03-10T21:33:45.311Z,94322.34
2019-03-10T21:36:18.930Z,94319.48
2019-03-10T21:38:52.131Z,94324.72
2019-03-10T21:41:25.472Z,94326.05
2019-03-10T21:43:59.138Z,94330.20
2019-03-10T21:46:32.803Z,94330.77
2019-03-10T21:49:06.505Z,94327.57
2019-03-10T21:51:39.859Z,94322.98
2019-03-10T21:54:13.236Z,94328.72
2019-03-10T21:56:46.368Z,94325.76
2019-03-10T21:59:19.702Z,94330.63
2019-03-10T22:01:53.062Z,94339.06
2019-03-10T22:04:27.701Z,94346.30
2019-03-10T22:07:01.217Z,94347.97
2019-03-10T22:09:34.463Z,94351.70
2019-03-10T22:12:07.696Z,94350.63
2019-03-10T22:14:41.268Z,94352.70
2019-03-10T22:17:14.296Z,94351.63
2019-03-10T22:19:47.558Z,94349.56
2019-03-10T22:22:20.644Z,94345.86
2019-03-10T22:24:54.351Z,94353.25
2019-03-10T22:27:27.456Z,94363.20
2019-03-10T22:30:00.831Z,94359.13
2019-03-10T22:32:34.108Z,94358.52
2019-03-10T22:35:08.009Z,94351.69
2019-03-10T22:37:40.795Z,94364.53
2019-03-10T22:40:14.460Z,94366.75
2019-03-10T22:42:47.599Z,94363.45
2019-03-10T22:45:20.867Z,94359.15
2019-03-10T22:47:54.290Z,94361.69
2019-03-10T22:50:27.394Z,94360.99
2019-03-10T22:53:01.683Z,94360.85
2019-03-10T22:55:35.012Z,94360.19
2019-03-10T22:58:08.110Z,94360.66
2019-03-10T23:00:54.750Z,94360.97
2019-03-10T23:03:27.968Z,94365.91
2019-03-10T23:06:00.882Z,94363.14
2019-03-10T23:08:34.360Z,94362.44
2019-03-10T23:11:08.551Z,94369.03
2019-03-10T23:13:41.832Z,94381.92
2019-03-10T23:16:14.953Z,94388.17
2019-03-10T23:18:48.237Z,94392.77
2019-03-10T23:21:21.793Z,94389.16
2019-03-10T23:23:54.897Z,94386.28
2019-03-10T23:26:27.937Z,94381.17
2019-03-10T23:29:00.746Z,94381.34
2019-03-10T23:31:33.911Z,94383.95
2019-03-10T23:34:06.806Z,94386.94
2019-03-10T23:36:39.941Z,94386.73
2019-03-10T23:39:13.151Z,94393.38
2019-03-10T23:41:46.064Z,94395.83
2019-03-10T23:44:19.352Z,94394.58
2019-03-10T23:46:52.584Z,94396.02
2019-03-10T23:49:28.523Z,94399.23
2019-03-10T23:52:01.626Z,94400.86
2019-03-10T23:54:34.757Z,94400.00
2019-03-10T23:57:08.279Z,94411.08
2019-03-10T23:59:41.822Z,94411.11
